Terminal Aerodrome Forecast
Issued by NWS

Home | Current Version | Previous Version | Text Only | Print | Product List | Glossary On
Versions: 1 2 3 4 5 6 7 8 9 10 11 12 13
000
FTUS45 KRIW 200524
TAFLND
TAF
KLND 200524Z 2006/2106 VRB05KT P6SM VCSH SCT020 BKN040
      TEMPO 2007/2010 6SM -SN
     FM201900 VRB06KT P6SM SCT030 BKN070
     FM210000 26005KT P6SM FEW050 SCT110=

USA.gov is the U.S. government's official web portal to all federal, state and local government web resources and services.